Ballincollig, Ireland
Current Conditions -  °F | °C
As of 3:30 PM on Friday 28 Nov 2014 (Local Time) from EICK Reporting Station
Broken Clouds Broken Clouds  
Wind Chill: 11°   Ceiling: 1100
Heat Index: 11°   Visibility: 6mi
Dew Point:   Wind: 18mph
Humidity: 88%   Direction: 90°E
Pressure: 29.53"   Gusts: NA
Location:  51.89°N, 8.59°W
Report Text: EICK 281530Z 09016KT 9999 BKN011 11/09 Q1000 NOSIG
Loading
Personal Weather Stations






























Interactive Weather Map New forecast layout! Learn more

10-Day Weather Forecast

Advertisements
Track Severe Weather on mobile